sensor_id;sensor_type;location;lat;lon;timestamp;pressure;altitude;pressure_sealevel;temperature;humidity
9462;BME280;4769;42.660;23.262;2023-04-25T00:00:32;93241.28;;;12.43;100.00
9462;BME280;4769;42.660;23.262;2023-04-25T00:02:58;93231.50;;;12.38;100.00
9462;BME280;4769;42.660;23.262;2023-04-25T00:05:26;93229.84;;;12.52;100.00
9462;BME280;4769;42.660;23.262;2023-04-25T00:07:52;93225.66;;;12.46;100.00
9462;BME280;4769;42.660;23.262;2023-04-25T00:10:18;93216.47;;;12.34;100.00
9462;BME280;4769;42.660;23.262;2023-04-25T00:12:44;93210.59;;;12.47;100.00
9462;BME280;4769;42.660;23.262;2023-04-25T00:15:10;93193.81;;;12.61;100.00
9462;BME280;4769;42.660;23.262;2023-04-25T00:17:36;93192.53;;;12.59;100.00
9462;BME280;4769;42.660;23.262;2023-04-25T00:20:03;93196.44;;;12.71;100.00
9462;BME280;4769;42.660;23.262;2023-04-25T00:22:31;93197.53;;;12.60;100.00
9462;BME280;4769;42.660;23.262;2023-04-25T00:24:57;93195.94;;;12.64;100.00
9462;BME280;4769;42.660;23.262;2023-04-25T00:27:22;93201.78;;;12.56;100.00
9462;BME280;4769;42.660;23.262;2023-04-25T00:29:48;93202.59;;;12.57;100.00
9462;BME280;4769;42.660;23.262;2023-04-25T00:32:14;93187.06;;;12.45;100.00
9462;BME280;4769;42.660;23.262;2023-04-25T00:34:39;93199.69;;;12.58;100.00
9462;BME280;4769;42.660;23.262;2023-04-25T00:37:05;93190.84;;;12.34;100.00
9462;BME280;4769;42.660;23.262;2023-04-25T00:39:33;93192.00;;;12.13;100.00
9462;BME280;4769;42.660;23.262;2023-04-25T00:42:00;93199.22;;;11.88;100.00
9462;BME280;4769;42.660;23.262;2023-04-25T00:44:27;93203.72;;;11.92;100.00
9462;BME280;4769;42.660;23.262;2023-04-25T00:46:53;93202.38;;;11.95;100.00
9462;BME280;4769;42.660;23.262;2023-04-25T00:49:19;93187.25;;;12.05;100.00
9462;BME280;4769;42.660;23.262;2023-04-25T00:51:45;93185.84;;;12.28;100.00
9462;BME280;4769;42.660;23.262;2023-04-25T00:54:11;93184.63;;;12.05;100.00
9462;BME280;4769;42.660;23.262;2023-04-25T00:56:40;93174.84;;;12.06;100.00
9462;BME280;4769;42.660;23.262;2023-04-25T00:59:06;93189.63;;;12.07;100.00
9462;BME280;4769;42.660;23.262;2023-04-25T01:01:32;93177.25;;;12.02;100.00
9462;BME280;4769;42.660;23.262;2023-04-25T01:03:58;93172.72;;;12.08;100.00
9462;BME280;4769;42.660;23.262;2023-04-25T01:06:25;93171.13;;;12.12;100.00
9462;BME280;4769;42.660;23.262;2023-04-25T01:08:51;93163.47;;;12.05;100.00
9462;BME280;4769;42.660;23.262;2023-04-25T01:11:17;93169.25;;;12.17;100.00
9462;BME280;4769;42.660;23.262;2023-04-25T01:13:45;93165.75;;;12.32;100.00
9462;BME280;4769;42.660;23.262;2023-04-25T01:16:11;93155.94;;;12.32;100.00
9462;BME280;4769;42.660;23.262;2023-04-25T01:18:38;93165.25;;;12.25;100.00
9462;BME280;4769;42.660;23.262;2023-04-25T01:21:10;93175.00;;;12.24;100.00
9462;BME280;4769;42.660;23.262;2023-04-25T01:23:36;93177.44;;;12.16;100.00
9462;BME280;4769;42.660;23.262;2023-04-25T01:26:03;93174.28;;;12.14;100.00
9462;BME280;4769;42.660;23.262;2023-04-25T01:28:29;93161.03;;;12.24;100.00
9462;BME280;4769;42.660;23.262;2023-04-25T01:30:55;93176.66;;;12.15;100.00
9462;BME280;4769;42.660;23.262;2023-04-25T01:33:22;93172.97;;;12.11;100.00
9462;BME280;4769;42.660;23.262;2023-04-25T01:35:47;93174.53;;;12.17;100.00
9462;BME280;4769;42.660;23.262;2023-04-25T01:38:16;93162.63;;;12.20;100.00
9462;BME280;4769;42.660;23.262;2023-04-25T01:40:43;93167.88;;;12.25;100.00
9462;BME280;4769;42.660;23.262;2023-04-25T01:43:10;93156.50;;;12.24;100.00
9462;BME280;4769;42.660;23.262;2023-04-25T01:45:36;93163.41;;;12.25;100.00
9462;BME280;4769;42.660;23.262;2023-04-25T01:48:02;93169.69;;;12.34;100.00
9462;BME280;4769;42.660;23.262;2023-04-25T01:50:28;93176.59;;;12.30;100.00
9462;BME280;4769;42.660;23.262;2023-04-25T01:52:54;93181.06;;;12.30;100.00
9462;BME280;4769;42.660;23.262;2023-04-25T01:55:23;93175.22;;;12.38;100.00
9462;BME280;4769;42.660;23.262;2023-04-25T01:57:49;93178.31;;;12.45;100.00
9462;BME280;4769;42.660;23.262;2023-04-25T02:00:15;93178.03;;;12.51;100.00
9462;BME280;4769;42.660;23.262;2023-04-25T02:02:41;93175.25;;;12.33;100.00
9462;BME280;4769;42.660;23.262;2023-04-25T02:05:07;93177.19;;;12.17;100.00
9462;BME280;4769;42.660;23.262;2023-04-25T02:07:33;93173.16;;;12.25;100.00
9462;BME280;4769;42.660;23.262;2023-04-25T02:09:59;93171.06;;;12.22;100.00
9462;BME280;4769;42.660;23.262;2023-04-25T02:12:27;93158.34;;;12.29;100.00
9462;BME280;4769;42.660;23.262;2023-04-25T02:14:53;93160.69;;;12.35;100.00
9462;BME280;4769;42.660;23.262;2023-04-25T02:17:19;93153.75;;;12.44;100.00
9462;BME280;4769;42.660;23.262;2023-04-25T02:19:44;93147.63;;;12.49;100.00
9462;BME280;4769;42.660;23.262;2023-04-25T02:22:10;93141.28;;;12.50;100.00
9462;BME280;4769;42.660;23.262;2023-04-25T02:24:36;93149.22;;;12.55;100.00
9462;BME280;4769;42.660;23.262;2023-04-25T02:27:02;93149.22;;;12.55;100.00
9462;BME280;4769;42.660;23.262;2023-04-25T02:29:30;93143.63;;;12.56;100.00
9462;BME280;4769;42.660;23.262;2023-04-25T02:31:56;93144.09;;;12.63;100.00
9462;BME280;4769;42.660;23.262;2023-04-25T02:34:21;93131.97;;;12.62;100.00
9462;BME280;4769;42.660;23.262;2023-04-25T02:36:48;93142.28;;;12.59;100.00
9462;BME280;4769;42.660;23.262;2023-04-25T02:39:13;93131.47;;;12.55;100.00
9462;BME280;4769;42.660;23.262;2023-04-25T02:41:39;93132.81;;;12.53;100.00
9462;BME280;4769;42.660;23.262;2023-04-25T02:44:05;93130.34;;;12.61;100.00
9462;BME280;4769;42.660;23.262;2023-04-25T02:46:33;93130.44;;;12.51;100.00
9462;BME280;4769;42.660;23.262;2023-04-25T02:48:59;93124.22;;;12.32;100.00
9462;BME280;4769;42.660;23.262;2023-04-25T02:51:24;93113.13;;;12.35;100.00
9462;BME280;4769;42.660;23.262;2023-04-25T02:53:50;93114.88;;;12.06;100.00
9462;BME280;4769;42.660;23.262;2023-04-25T02:56:16;93113.06;;;11.97;100.00
9462;BME280;4769;42.660;23.262;2023-04-25T02:58:41;93104.81;;;12.08;100.00
9462;BME280;4769;42.660;23.262;2023-04-25T03:01:07;93103.03;;;11.94;100.00
9462;BME280;4769;42.660;23.262;2023-04-25T03:03:35;93101.72;;;11.96;100.00
9462;BME280;4769;42.660;23.262;2023-04-25T03:06:01;93105.06;;;12.12;100.00
9462;BME280;4769;42.660;23.262;2023-04-25T03:08:27;93103.75;;;12.09;100.00
9462;BME280;4769;42.660;23.262;2023-04-25T03:10:52;93104.06;;;12.03;100.00
9462;BME280;4769;42.660;23.262;2023-04-25T03:13:18;93104.06;;;12.03;100.00
9462;BME280;4769;42.660;23.262;2023-04-25T03:15:44;93102.78;;;11.95;100.00
9462;BME280;4769;42.660;23.262;2023-04-25T03:18:10;93111.25;;;11.97;100.00
9462;BME280;4769;42.660;23.262;2023-04-25T03:20:38;93111.47;;;12.01;100.00
9462;BME280;4769;42.660;23.262;2023-04-25T03:23:04;93104.34;;;12.01;100.00
9462;BME280;4769;42.660;23.262;2023-04-25T03:25:30;93104.34;;;12.01;100.00
9462;BME280;4769;42.660;23.262;2023-04-25T03:27:55;93091.91;;;12.02;100.00
9462;BME280;4769;42.660;23.262;2023-04-25T03:30:21;93107.00;;;12.01;100.00
9462;BME280;4769;42.660;23.262;2023-04-25T03:32:47;93084.56;;;11.94;100.00
9462;BME280;4769;42.660;23.262;2023-04-25T03:35:12;93099.13;;;11.86;100.00
9462;BME280;4769;42.660;23.262;2023-04-25T03:37:41;93108.34;;;11.89;100.00
9462;BME280;4769;42.660;23.262;2023-04-25T03:40:07;93089.63;;;11.85;100.00
9462;BME280;4769;42.660;23.262;2023-04-25T03:42:33;93089.13;;;11.83;100.00
9462;BME280;4769;42.660;23.262;2023-04-25T03:44:59;93093.59;;;11.83;100.00
9462;BME280;4769;42.660;23.262;2023-04-25T03:47:24;93093.34;;;11.84;100.00
9462;BME280;4769;42.660;23.262;2023-04-25T03:49:50;93085.81;;;12.06;100.00
9462;BME280;4769;42.660;23.262;2023-04-25T03:52:16;93082.03;;;12.17;100.00
9462;BME280;4769;42.660;23.262;2023-04-25T03:54:45;93086.22;;;12.23;100.00
9462;BME280;4769;42.660;23.262;2023-04-25T03:57:10;93090.09;;;12.36;100.00
9462;BME280;4769;42.660;23.262;2023-04-25T03:59:36;93099.91;;;12.35;100.00
9462;BME280;4769;42.660;23.262;2023-04-25T04:02:02;93102.47;;;12.45;100.00
9462;BME280;4769;42.660;23.262;2023-04-25T04:04:27;93106.13;;;12.49;100.00
9462;BME280;4769;42.660;23.262;2023-04-25T04:06:53;93105.06;;;12.50;100.00
9462;BME280;4769;42.660;23.262;2023-04-25T04:09:19;93112.47;;;12.53;100.00
9462;BME280;4769;42.660;23.262;2023-04-25T04:11:47;93109.06;;;12.48;100.00
9462;BME280;4769;42.660;23.262;2023-04-25T04:14:13;93112.03;;;12.75;100.00
9462;BME280;4769;42.660;23.262;2023-04-25T04:16:39;93111.44;;;12.78;100.00
9462;BME280;4769;42.660;23.262;2023-04-25T04:19:04;93105.38;;;12.77;100.00
9462;BME280;4769;42.660;23.262;2023-04-25T04:21:30;93099.56;;;12.75;100.00
9462;BME280;4769;42.660;23.262;2023-04-25T04:23:56;93107.44;;;12.85;100.00
9462;BME280;4769;42.660;23.262;2023-04-25T04:26:21;93106.38;;;12.86;100.00
9462;BME280;4769;42.660;23.262;2023-04-25T04:28:50;93106.16;;;12.83;100.00
9462;BME280;4769;42.660;23.262;2023-04-25T04:31:16;93108.97;;;12.58;100.00
9462;BME280;4769;42.660;23.262;2023-04-25T04:33:41;93108.78;;;12.49;100.00
9462;BME280;4769;42.660;23.262;2023-04-25T04:36:07;93109.38;;;12.41;100.00
9462;BME280;4769;42.660;23.262;2023-04-25T04:38:33;93098.97;;;12.50;100.00
9462;BME280;4769;42.660;23.262;2023-04-25T04:40:59;93102.16;;;12.52;100.00
9462;BME280;4769;42.660;23.262;2023-04-25T04:43:24;93083.88;;;12.55;100.00
9462;BME280;4769;42.660;23.262;2023-04-25T04:45:53;93093.28;;;12.71;100.00
9462;BME280;4769;42.660;23.262;2023-04-25T04:48:18;93088.59;;;12.63;100.00
9462;BME280;4769;42.660;23.262;2023-04-25T04:50:44;93111.53;;;12.68;100.00
9462;BME280;4769;42.660;23.262;2023-04-25T04:53:10;93110.69;;;12.77;100.00
9462;BME280;4769;42.660;23.262;2023-04-25T04:55:35;93123.31;;;12.85;100.00
9462;BME280;4769;42.660;23.262;2023-04-25T04:58:01;93129.31;;;12.62;100.00
9462;BME280;4769;42.660;23.262;2023-04-25T05:00:27;93136.94;;;12.64;100.00
9462;BME280;4769;42.660;23.262;2023-04-25T05:02:55;93133.25;;;12.65;100.00
9462;BME280;4769;42.660;23.262;2023-04-25T05:05:21;93130.09;;;12.63;100.00
9462;BME280;4769;42.660;23.262;2023-04-25T05:07:47;93138.97;;;12.77;100.00
9462;BME280;4769;42.660;23.262;2023-04-25T05:10:13;93130.22;;;12.81;100.00
9462;BME280;4769;42.660;23.262;2023-04-25T05:12:38;93143.84;;;12.93;100.00
9462;BME280;4769;42.660;23.262;2023-04-25T05:15:05;93129.59;;;12.94;100.00
9462;BME280;4769;42.660;23.262;2023-04-25T05:17:31;93125.25;;;13.08;100.00
9462;BME280;4769;42.660;23.262;2023-04-25T05:20:00;93129.69;;;13.13;100.00
9462;BME280;4769;42.660;23.262;2023-04-25T05:22:25;93122.31;;;13.10;100.00
9462;BME280;4769;42.660;23.262;2023-04-25T05:24:51;93140.00;;;13.14;100.00
9462;BME280;4769;42.660;23.262;2023-04-25T05:27:17;93134.94;;;13.18;100.00
9462;BME280;4769;42.660;23.262;2023-04-25T05:29:43;93141.34;;;13.12;100.00
9462;BME280;4769;42.660;23.262;2023-04-25T05:32:09;93143.97;;;13.17;100.00
9462;BME280;4769;42.660;23.262;2023-04-25T05:34:35;93132.50;;;12.98;100.00
9462;BME280;4769;42.660;23.262;2023-04-25T05:37:03;93129.28;;;12.96;100.00
9462;BME280;4769;42.660;23.262;2023-04-25T05:39:29;93140.78;;;13.15;100.00
9462;BME280;4769;42.660;23.262;2023-04-25T05:41:54;93143.84;;;12.93;100.00
9462;BME280;4769;42.660;23.262;2023-04-25T05:44:20;93127.31;;;13.11;100.00
9462;BME280;4769;42.660;23.262;2023-04-25T05:46:46;93137.16;;;13.34;100.00
9462;BME280;4769;42.660;23.262;2023-04-25T05:49:12;93134.06;;;12.99;100.00
9462;BME280;4769;42.660;23.262;2023-04-25T05:51:40;93128.31;;;13.20;100.00
9462;BME280;4769;42.660;23.262;2023-04-25T05:54:08;93134.50;;;13.11;100.00
9462;BME280;4769;42.660;23.262;2023-04-25T05:56:34;93131.69;;;13.26;100.00
9462;BME280;4769;42.660;23.262;2023-04-25T05:58:59;93137.69;;;13.08;100.00
9462;BME280;4769;42.660;23.262;2023-04-25T06:01:25;93138.97;;;13.39;100.00
9462;BME280;4769;42.660;23.262;2023-04-25T06:03:50;93128.56;;;13.47;100.00
9462;BME280;4769;42.660;23.262;2023-04-25T06:06:16;93135.19;;;13.45;100.00
9462;BME280;4769;42.660;23.262;2023-04-25T06:08:42;93137.75;;;13.26;100.00
9462;BME280;4769;42.660;23.262;2023-04-25T06:11:10;93143.34;;;13.25;100.00
9462;BME280;4769;42.660;23.262;2023-04-25T06:13:36;93135.41;;;13.25;100.00
9462;BME280;4769;42.660;23.262;2023-04-25T06:16:02;93140.09;;;13.33;100.00
9462;BME280;4769;42.660;23.262;2023-04-25T06:18:27;93136.63;;;13.37;100.00
9462;BME280;4769;42.660;23.262;2023-04-25T06:20:53;93135.25;;;13.40;100.00
9462;BME280;4769;42.660;23.262;2023-04-25T06:23:19;93137.84;;;13.45;100.00
9462;BME280;4769;42.660;23.262;2023-04-25T06:25:44;93135.38;;;13.77;100.00
9462;BME280;4769;42.660;23.262;2023-04-25T06:28:13;93140.69;;;13.95;100.00
9462;BME280;4769;42.660;23.262;2023-04-25T06:30:39;93148.91;;;14.18;100.00
9462;BME280;4769;42.660;23.262;2023-04-25T06:33:04;93141.84;;;14.32;100.00
9462;BME280;4769;42.660;23.262;2023-04-25T06:35:30;93156.34;;;14.76;100.00
9462;BME280;4769;42.660;23.262;2023-04-25T06:37:56;93131.72;;;14.89;100.00
9462;BME280;4769;42.660;23.262;2023-04-25T06:40:21;93149.72;;;14.55;100.00
9462;BME280;4769;42.660;23.262;2023-04-25T06:42:47;93168.16;;;14.47;100.00
9462;BME280;4769;42.660;23.262;2023-04-25T06:45:15;93156.91;;;14.36;100.00
9462;BME280;4769;42.660;23.262;2023-04-25T06:47:41;93161.34;;;14.59;100.00
9462;BME280;4769;42.660;23.262;2023-04-25T06:50:08;93161.16;;;14.74;100.00
9462;BME280;4769;42.660;23.262;2023-04-25T06:52:34;93160.19;;;14.84;100.00
9462;BME280;4769;42.660;23.262;2023-04-25T06:54:59;93151.38;;;14.88;100.00
9462;BME280;4769;42.660;23.262;2023-04-25T06:57:25;93152.13;;;14.38;100.00
9462;BME280;4769;42.660;23.262;2023-04-25T06:59:51;93152.00;;;14.25;100.00
9462;BME280;4769;42.660;23.262;2023-04-25T07:02:19;93144.41;;;14.18;100.00
9462;BME280;4769;42.660;23.262;2023-04-25T07:04:45;93162.06;;;14.28;100.00
9462;BME280;4769;42.660;23.262;2023-04-25T07:07:10;93151.91;;;14.35;100.00
9462;BME280;4769;42.660;23.262;2023-04-25T07:09:36;93164.59;;;14.56;100.00
9462;BME280;4769;42.660;23.262;2023-04-25T07:12:02;93164.94;;;14.68;100.00
9462;BME280;4769;42.660;23.262;2023-04-25T07:14:28;93149.69;;;14.92;100.00
9462;BME280;4769;42.660;23.262;2023-04-25T07:16:53;93153.09;;;14.61;100.00
9462;BME280;4769;42.660;23.262;2023-04-25T07:19:22;93149.53;;;14.70;100.00
9462;BME280;4769;42.660;23.262;2023-04-25T07:21:48;93146.13;;;15.15;99.99
9462;BME280;4769;42.660;23.262;2023-04-25T07:24:13;93137.72;;;15.27;97.30
9462;BME280;4769;42.660;23.262;2023-04-25T07:26:39;93140.44;;;15.22;96.51
9462;BME280;4769;42.660;23.262;2023-04-25T07:29:05;93148.81;;;15.47;96.26
9462;BME280;4769;42.660;23.262;2023-04-25T07:31:30;93146.06;;;15.52;96.83
9462;BME280;4769;42.660;23.262;2023-04-25T07:33:56;93137.03;;;15.67;95.69
9462;BME280;4769;42.660;23.262;2023-04-25T07:36:25;93134.97;;;15.91;92.90
9462;BME280;4769;42.660;23.262;2023-04-25T07:38:50;93146.38;;;16.18;91.66
9462;BME280;4769;42.660;23.262;2023-04-25T07:41:16;93140.34;;;16.26;91.42
9462;BME280;4769;42.660;23.262;2023-04-25T07:43:42;93132.56;;;16.43;91.22
9462;BME280;4769;42.660;23.262;2023-04-25T07:46:07;93151.00;;;16.40;90.32
9462;BME280;4769;42.660;23.262;2023-04-25T07:48:33;93145.06;;;16.16;90.40
9462;BME280;4769;42.660;23.262;2023-04-25T07:50:59;93146.66;;;16.03;89.81
9462;BME280;4769;42.660;23.262;2023-04-25T07:53:27;93131.72;;;15.53;92.92
9462;BME280;4769;42.660;23.262;2023-04-25T07:55:53;93138.69;;;15.63;91.80
9462;BME280;4769;42.660;23.262;2023-04-25T07:58:19;93138.13;;;15.93;91.84
9462;BME280;4769;42.660;23.262;2023-04-25T08:00:44;93132.56;;;16.16;90.27
9462;BME280;4769;42.660;23.262;2023-04-25T08:03:10;93137.13;;;16.02;79.23
9462;BME280;4769;42.660;23.262;2023-04-25T08:05:36;93128.34;;;16.15;76.18
9462;BME280;4769;42.660;23.262;2023-04-25T08:08:01;93133.94;;;16.41;70.08
9462;BME280;4769;42.660;23.262;2023-04-25T08:10:30;93134.59;;;16.60;67.84
9462;BME280;4769;42.660;23.262;2023-04-25T08:12:55;93128.41;;;16.51;67.19
9462;BME280;4769;42.660;23.262;2023-04-25T08:15:21;93132.31;;;16.89;67.17
9462;BME280;4769;42.660;23.262;2023-04-25T08:17:47;93132.84;;;16.42;66.66
9462;BME280;4769;42.660;23.262;2023-04-25T08:20:12;93114.59;;;16.35;66.54
9462;BME280;4769;42.660;23.262;2023-04-25T08:22:38;93108.81;;;17.13;67.54
9462;BME280;4769;42.660;23.262;2023-04-25T08:25:05;93110.34;;;17.58;65.93
9462;BME280;4769;42.660;23.262;2023-04-25T08:27:33;93110.25;;;16.88;64.58
9462;BME280;4769;42.660;23.262;2023-04-25T08:29:59;93122.00;;;16.52;67.00
9462;BME280;4769;42.660;23.262;2023-04-25T08:32:25;93114.94;;;16.20;70.96
9462;BME280;4769;42.660;23.262;2023-04-25T08:34:50;93125.50;;;15.71;75.01
9462;BME280;4769;42.660;23.262;2023-04-25T08:37:16;93121.88;;;15.81;77.79
9462;BME280;4769;42.660;23.262;2023-04-25T08:39:42;93117.91;;;16.68;81.44
9462;BME280;4769;42.660;23.262;2023-04-25T08:42:07;93097.84;;;17.36;84.09
9462;BME280;4769;42.660;23.262;2023-04-25T08:44:36;93104.56;;;18.03;73.78
9462;BME280;4769;42.660;23.262;2023-04-25T08:47:02;93113.00;;;17.97;72.68
9462;BME280;4769;42.660;23.262;2023-04-25T08:49:29;93104.84;;;17.85;70.69
9462;BME280;4769;42.660;23.262;2023-04-25T08:52:00;93099.22;;;17.95;68.50
9462;BME280;4769;42.660;23.262;2023-04-25T08:54:27;93091.25;;;17.56;65.25
9462;BME280;4769;42.660;23.262;2023-04-25T08:56:54;93101.59;;;17.35;65.28
9462;BME280;4769;42.660;23.262;2023-04-25T08:59:22;93091.72;;;17.66;62.75
9462;BME280;4769;42.660;23.262;2023-04-25T09:01:54;93105.31;;;17.48;65.04
9462;BME280;4769;42.660;23.262;2023-04-25T09:04:20;93096.72;;;17.29;61.93
9462;BME280;4769;42.660;23.262;2023-04-25T09:06:46;93078.97;;;17.55;62.06
9462;BME280;4769;42.660;23.262;2023-04-25T09:09:12;93095.81;;;18.11;62.68
9462;BME280;4769;42.660;23.262;2023-04-25T09:11:37;93084.91;;;17.91;58.82
9462;BME280;4769;42.660;23.262;2023-04-25T09:14:14;93092.63;;;18.01;59.45
9462;BME280;4769;42.660;23.262;2023-04-25T09:17:01;93087.75;;;17.94;57.55
9462;BME280;4769;42.660;23.262;2023-04-25T09:19:28;93088.00;;;17.15;57.45
9462;BME280;4769;42.660;23.262;2023-04-25T09:21:54;93096.13;;;16.66;57.15
9462;BME280;4769;42.660;23.262;2023-04-25T09:24:30;93106.66;;;16.22;56.17
9462;BME280;4769;42.660;23.262;2023-04-25T09:26:56;93100.94;;;16.42;53.82
9462;BME280;4769;42.660;23.262;2023-04-25T09:29:28;93093.41;;;16.57;54.61
9462;BME280;4769;42.660;23.262;2023-04-25T09:32:14;93100.44;;;16.75;54.58
9462;BME280;4769;42.660;23.262;2023-04-25T09:34:40;93097.28;;;16.95;52.80
9462;BME280;4769;42.660;23.262;2023-04-25T09:37:06;93100.66;;;16.87;52.17
9462;BME280;4769;42.660;23.262;2023-04-25T09:39:33;93093.25;;;17.28;51.67
9462;BME280;4769;42.660;23.262;2023-04-25T09:41:59;93093.44;;;18.01;50.99
9462;BME280;4769;42.660;23.262;2023-04-25T09:44:24;93083.97;;;18.77;51.06
9462;BME280;4769;42.660;23.262;2023-04-25T09:46:50;93077.88;;;19.56;47.33
9462;BME280;4769;42.660;23.262;2023-04-25T09:49:19;93069.13;;;19.85;48.68
9462;BME280;4769;42.660;23.262;2023-04-25T09:51:54;93068.38;;;19.67;47.65
9462;BME280;4769;42.660;23.262;2023-04-25T09:54:20;93070.53;;;19.45;46.26
9462;BME280;4769;42.660;23.262;2023-04-25T09:56:48;93069.03;;;18.76;46.87
9462;BME280;4769;42.660;23.262;2023-04-25T09:59:14;93072.13;;;18.27;47.17
9462;BME280;4769;42.660;23.262;2023-04-25T10:01:41;93080.69;;;17.90;49.84
9462;BME280;4769;42.660;23.262;2023-04-25T10:04:10;93089.56;;;17.38;50.46
9462;BME280;4769;42.660;23.262;2023-04-25T10:06:39;93090.09;;;16.25;53.63
9462;BME280;4769;42.660;23.262;2023-04-25T10:09:07;93122.66;;;15.68;60.63
9462;BME280;4769;42.660;23.262;2023-04-25T10:11:32;93143.78;;;14.82;70.33
9462;BME280;4769;42.660;23.262;2023-04-25T10:13:59;93113.13;;;14.57;77.36
9462;BME280;4769;42.660;23.262;2023-04-25T10:16:25;93109.22;;;14.68;77.13
9462;BME280;4769;42.660;23.262;2023-04-25T10:18:51;93108.41;;;15.18;77.60
9462;BME280;4769;42.660;23.262;2023-04-25T10:21:17;93105.91;;;15.81;75.47
9462;BME280;4769;42.660;23.262;2023-04-25T10:23:47;93093.63;;;16.47;70.60
9462;BME280;4769;42.660;23.262;2023-04-25T10:26:14;93092.06;;;16.90;69.57
9462;BME280;4769;42.660;23.262;2023-04-25T10:28:55;93071.63;;;17.30;58.36
9462;BME280;4769;42.660;23.262;2023-04-25T10:31:21;93070.22;;;18.10;59.28
9462;BME280;4769;42.660;23.262;2023-04-25T10:33:48;93052.97;;;19.01;60.95
9462;BME280;4769;42.660;23.262;2023-04-25T10:36:15;93060.56;;;18.40;57.98
9462;BME280;4769;42.660;23.262;2023-04-25T10:38:43;93061.78;;;18.25;55.18
9462;BME280;4769;42.660;23.262;2023-04-25T10:41:13;93055.31;;;18.09;54.70
9462;BME280;4769;42.660;23.262;2023-04-25T10:43:39;93066.53;;;18.71;55.15
9462;BME280;4769;42.660;23.262;2023-04-25T10:46:19;93057.84;;;18.23;53.19
9462;BME280;4769;42.660;23.262;2023-04-25T10:48:46;93049.63;;;17.16;53.68
9462;BME280;4769;42.660;23.262;2023-04-25T10:51:16;93051.16;;;17.08;55.21
9462;BME280;4769;42.660;23.262;2023-04-25T10:53:43;93058.50;;;17.11;53.32
9462;BME280;4769;42.660;23.262;2023-04-25T10:56:19;93072.19;;;17.40;53.48
9462;BME280;4769;42.660;23.262;2023-04-25T10:58:46;93055.09;;;16.89;56.60
9462;BME280;4769;42.660;23.262;2023-04-25T11:01:12;93059.88;;;17.61;54.38
9462;BME280;4769;42.660;23.262;2023-04-25T11:03:40;93052.38;;;18.96;52.05
9462;BME280;4769;42.660;23.262;2023-04-25T11:06:15;93061.34;;;20.00;49.29
9462;BME280;4769;42.660;23.262;2023-04-25T11:08:48;93050.06;;;19.86;46.54
9462;BME280;4769;42.660;23.262;2023-04-25T11:11:17;93055.53;;;20.27;45.34
9462;BME280;4769;42.660;23.262;2023-04-25T11:13:43;93040.25;;;19.61;48.81
9462;BME280;4769;42.660;23.262;2023-04-25T11:16:09;93051.72;;;20.08;49.63
9462;BME280;4769;42.660;23.262;2023-04-25T11:18:34;93040.06;;;19.75;48.63
9462;BME280;4769;42.660;23.262;2023-04-25T11:21:00;93047.25;;;19.37;49.32
9462;BME280;4769;42.660;23.262;2023-04-25T11:23:28;93055.84;;;18.88;49.30
9462;BME280;4769;42.660;23.262;2023-04-25T11:25:55;93045.22;;;17.89;54.58
9462;BME280;4769;42.660;23.262;2023-04-25T11:28:23;93051.84;;;17.22;58.65
9462;BME280;4769;42.660;23.262;2023-04-25T11:30:49;93060.09;;;16.82;60.56
9462;BME280;4769;42.660;23.262;2023-04-25T11:33:15;93069.56;;;16.39;62.68
9462;BME280;4769;42.660;23.262;2023-04-25T11:35:41;93076.69;;;16.30;64.71
9462;BME280;4769;42.660;23.262;2023-04-25T11:38:06;93079.34;;;16.30;66.89
9462;BME280;4769;42.660;23.262;2023-04-25T11:40:32;93092.50;;;15.99;67.06
9462;BME280;4769;42.660;23.262;2023-04-25T11:43:00;93088.97;;;15.50;66.33
9462;BME280;4769;42.660;23.262;2023-04-25T11:45:29;93090.50;;;15.24;70.78
9462;BME280;4769;42.660;23.262;2023-04-25T11:47:55;93093.78;;;15.34;70.75
9462;BME280;4769;42.660;23.262;2023-04-25T11:50:20;93082.00;;;15.54;70.32
9462;BME280;4769;42.660;23.262;2023-04-25T11:52:47;93071.22;;;16.13;74.89
9462;BME280;4769;42.660;23.262;2023-04-25T11:55:14;93060.94;;;16.69;72.71
9462;BME280;4769;42.660;23.262;2023-04-25T11:57:41;93054.59;;;17.70;71.04
9462;BME280;4769;42.660;23.262;2023-04-25T12:00:10;93045.72;;;18.08;68.72
9462;BME280;4769;42.660;23.262;2023-04-25T12:02:40;93035.56;;;18.78;67.48
9462;BME280;4769;42.660;23.262;2023-04-25T12:05:07;93024.59;;;20.38;64.98
9462;BME280;4769;42.660;23.262;2023-04-25T12:07:32;93016.19;;;21.58;61.15
9462;BME280;4769;42.660;23.262;2023-04-25T12:09:58;93021.59;;;21.70;56.04
9462;BME280;4769;42.660;23.262;2023-04-25T12:12:27;93018.69;;;21.87;54.02
9462;BME280;4769;42.660;23.262;2023-04-25T12:14:52;93028.75;;;22.26;54.04
9462;BME280;4769;42.660;23.262;2023-04-25T12:17:18;93031.44;;;22.26;52.40
9462;BME280;4769;42.660;23.262;2023-04-25T12:19:46;93029.25;;;21.35;52.81
9462;BME280;4769;42.660;23.262;2023-04-25T12:22:19;93029.53;;;20.89;51.35
9462;BME280;4769;42.660;23.262;2023-04-25T12:24:46;93032.44;;;20.64;49.81
9462;BME280;4769;42.660;23.262;2023-04-25T12:27:15;93041.56;;;19.84;48.40
9462;BME280;4769;42.660;23.262;2023-04-25T12:29:50;93053.34;;;18.49;54.20
9462;BME280;4769;42.660;23.262;2023-04-25T12:32:16;93068.00;;;16.95;64.84
9462;BME280;4769;42.660;23.262;2023-04-25T12:34:42;93090.06;;;15.35;72.74
9462;BME280;4769;42.660;23.262;2023-04-25T12:37:10;93098.59;;;14.87;74.31
9462;BME280;4769;42.660;23.262;2023-04-25T12:39:36;93098.69;;;14.63;76.12
9462;BME280;4769;42.660;23.262;2023-04-25T12:42:02;93094.22;;;14.77;75.72
9462;BME280;4769;42.660;23.262;2023-04-25T12:44:28;93110.47;;;14.57;74.27
9462;BME280;4769;42.660;23.262;2023-04-25T12:46:53;93100.78;;;14.48;75.23
9462;BME280;4769;42.660;23.262;2023-04-25T12:49:19;93097.75;;;14.54;77.84
9462;BME280;4769;42.660;23.262;2023-04-25T12:51:45;93112.97;;;14.30;81.18
9462;BME280;4769;42.660;23.262;2023-04-25T12:54:13;93118.06;;;14.27;81.88
9462;BME280;4769;42.660;23.262;2023-04-25T12:56:39;93111.53;;;14.19;83.86
9462;BME280;4769;42.660;23.262;2023-04-25T12:59:06;93118.41;;;14.39;83.67
9462;BME280;4769;42.660;23.262;2023-04-25T13:01:31;93131.56;;;14.49;85.92